This is the latest recevied weather packets stored in our database for station/object HI8S-13. If no packets are shown the sender has not sent any weather packets the latest 10 day(s).
| Time | Temp. | Humidity | Pressure | Rain* | Wind** | Luminosity | Snow |
|---|---|---|---|---|---|---|---|
| 1777842212 | 30° C | 69% | 1014.6 hPa | 0 mm | - | - | - |
| 1777841907 | 30° C | 69% | 1014.7 hPa | 0 mm | - | - | - |
| 1777840707 | 30° C | 68% | 1014.5 hPa | 0 mm | - | - | - |
| 1777840407 | 30° C | 68% | 1014.5 hPa | 0 mm | - | - | - |
| 1777840111 | 30° C | 67% | 1014.5 hPa | 0 mm | - | - | - |
| 1777839808 | 30.56° C | 66% | 1014.6 hPa | 0 mm | - | - | - |
| 1777839513 | 30.56° C | 65% | 1014.6 hPa | 0 mm | - | - | - |
| 1777836819 | 32.22° C | 60% | 1014.9 hPa | 0 mm | - | - | - |
| 1777836523 | 32.22° C | 59% | 1014.9 hPa | 0 mm | - | - | - |
| 1777835906 | 32.22° C | 60% | 1014.9 hPa | 0 mm | - | - | - |
| 1777835611 | 32.22° C | 61% | 1015.1 hPa | 0 mm | - | - | - |
| 1777835307 | 32.22° C | 60% | 1015.1 hPa | 0 mm | - | - | - |
| 1777835014 | 32.22° C | 57% | 1015.1 hPa | 0 mm | - | - | - |
| 1777833812 | 31.11° C | 64% | 1015.2 hPa | 0 mm | - | - | - |
| 1777833211 | 30.56° C | 63% | 1015.2 hPa | 0 mm | - | - | - |
| 1777832907 | 31.11° C | 65% | 1015.2 hPa | 0 mm | - | - | - |
| 1777832307 | 30.56° C | 65% | 1015.4 hPa | 0 mm | - | - | - |
| 1777831406 | 30.56° C | 65% | 1015.6 hPa | 0 mm | - | - | - |
| 1777830208 | 30.56° C | 67% | 1015.9 hPa | 0 mm | - | - | - |
| 1777829610 | 30.56° C | 65% | 1016.1 hPa | 0 mm | - | - | - |
| 1777829315 | 30.56° C | 66% | 1016.1 hPa | 0 mm | - | - | - |
| 1777829008 | 30.56° C | 67% | 1016.2 hPa | 0 mm | - | - | - |
| 1777828408 | 30° C | 66% | 1016.4 hPa | 0 mm | - | - | - |
| 1777827807 | 30° C | 67% | 1016.4 hPa | 0 mm | - | - | - |
| 1777825707 | 30° C | 63% | 1016.8 hPa | 0 mm | - | - | - |
* Rain latest hour (hover to see other rain measurements)
** Current wind speed in m/s (hover to see current wind gust speed)